Aviation Digital Data Service (ADDS)

Output produced by METARs form (1303 UTC 23 July 2016)
found at http://www.aviationweather.gov/adds/metars/
 
KDEC 231136Z 2312/2412 VRB03KT P6SM SKC 
     FM231400 19007KT P6SM SCT035 
     FM232200 18006KT P6SM SCT250